sensor_id;sensor_type;location;lat;lon;timestamp;pressure;altitude;pressure_sealevel;temperature;humidity
62057;BME280;48016;50.284;18.860;2023-02-18T00:01:30;97804.47;;;8.22;87.01
62057;BME280;48016;50.284;18.860;2023-02-18T00:03:58;97806.25;;;8.23;86.95
62057;BME280;48016;50.284;18.860;2023-02-18T00:06:30;97801.61;;;8.21;86.94
62057;BME280;48016;50.284;18.860;2023-02-18T00:08:58;97799.06;;;8.21;86.87
62057;BME280;48016;50.284;18.860;2023-02-18T00:11:30;97801.27;;;8.21;86.90
62057;BME280;48016;50.284;18.860;2023-02-18T00:13:59;97797.11;;;8.20;86.80
62057;BME280;48016;50.284;18.860;2023-02-18T00:16:28;97800.83;;;8.21;86.87
62057;BME280;48016;50.284;18.860;2023-02-18T00:18:57;97809.05;;;8.22;86.85
62057;BME280;48016;50.284;18.860;2023-02-18T00:21:24;97820.95;;;8.22;86.79
62057;BME280;48016;50.284;18.860;2023-02-18T00:23:51;97830.65;;;8.24;86.70
62057;BME280;48016;50.284;18.860;2023-02-18T00:26:18;97846.63;;;8.26;86.66
62057;BME280;48016;50.284;18.860;2023-02-18T00:28:46;97871.98;;;8.28;86.68
62057;BME280;48016;50.284;18.860;2023-02-18T00:31:20;97900.36;;;8.29;86.64
62057;BME280;48016;50.284;18.860;2023-02-18T00:33:47;97902.28;;;8.31;86.68
62057;BME280;48016;50.284;18.860;2023-02-18T00:36:16;97888.20;;;8.31;86.29
62057;BME280;48016;50.284;18.860;2023-02-18T00:38:45;97891.50;;;8.26;85.60
62057;BME280;48016;50.284;18.860;2023-02-18T00:41:12;97890.71;;;8.23;84.94
62057;BME280;48016;50.284;18.860;2023-02-18T00:43:39;97899.13;;;8.18;84.47
62057;BME280;48016;50.284;18.860;2023-02-18T00:46:05;97903.94;;;8.13;83.74
62057;BME280;48016;50.284;18.860;2023-02-18T00:48:34;97903.59;;;8.08;83.40
62057;BME280;48016;50.284;18.860;2023-02-18T00:51:01;97902.95;;;8.04;83.03
62057;BME280;48016;50.284;18.860;2023-02-18T00:53:28;97903.50;;;8.02;82.96
62057;BME280;48016;50.284;18.860;2023-02-18T00:55:55;97905.25;;;8.00;83.06
62057;BME280;48016;50.284;18.860;2023-02-18T00:58:21;97901.05;;;7.99;83.12
62057;BME280;48016;50.284;18.860;2023-02-18T01:00:48;97897.64;;;7.98;83.23
62057;BME280;48016;50.284;18.860;2023-02-18T01:03:15;97897.52;;;7.98;83.22
62057;BME280;48016;50.284;18.860;2023-02-18T01:05:43;97904.54;;;7.95;83.14
62057;BME280;48016;50.284;18.860;2023-02-18T01:08:10;97910.42;;;7.92;82.99
62057;BME280;48016;50.284;18.860;2023-02-18T01:10:41;97909.02;;;7.85;82.96
62057;BME280;48016;50.284;18.860;2023-02-18T01:13:08;97915.15;;;7.81;82.84
62057;BME280;48016;50.284;18.860;2023-02-18T01:15:35;97921.36;;;7.78;82.79
62057;BME280;48016;50.284;18.860;2023-02-18T01:18:01;97918.09;;;7.76;82.95
62057;BME280;48016;50.284;18.860;2023-02-18T01:20:28;97911.34;;;7.74;83.02
62057;BME280;48016;50.284;18.860;2023-02-18T01:22:55;97911.91;;;7.73;83.08
62057;BME280;48016;50.284;18.860;2023-02-18T01:25:22;97916.80;;;7.73;83.02
62057;BME280;48016;50.284;18.860;2023-02-18T01:27:48;97912.55;;;7.72;82.96
62057;BME280;48016;50.284;18.860;2023-02-18T01:30:17;97920.37;;;7.73;82.84
62057;BME280;48016;50.284;18.860;2023-02-18T01:32:44;97922.91;;;7.72;82.50
62057;BME280;48016;50.284;18.860;2023-02-18T01:35:13;97925.91;;;7.69;81.80
62057;BME280;48016;50.284;18.860;2023-02-18T01:37:40;97931.81;;;7.65;81.34
62057;BME280;48016;50.284;18.860;2023-02-18T01:40:09;97931.17;;;7.62;80.68
62057;BME280;48016;50.284;18.860;2023-02-18T01:42:36;97928.90;;;7.59;80.13
62057;BME280;48016;50.284;18.860;2023-02-18T01:48:19;97937.92;;;7.50;79.41
62057;BME280;48016;50.284;18.860;2023-02-18T01:50:53;97941.55;;;7.46;78.68
62057;BME280;48016;50.284;18.860;2023-02-18T01:53:30;97944.91;;;7.44;78.68
62057;BME280;48016;50.284;18.860;2023-02-18T01:56:00;97938.68;;;7.41;78.65
62057;BME280;48016;50.284;18.860;2023-02-18T01:58:28;97941.61;;;7.40;78.73
62057;BME280;48016;50.284;18.860;2023-02-18T02:00:55;97932.98;;;7.36;77.69
62057;BME280;48016;50.284;18.860;2023-02-18T02:03:21;97930.80;;;7.33;76.98
62057;BME280;48016;50.284;18.860;2023-02-18T02:05:48;97928.27;;;7.29;75.79
62057;BME280;48016;50.284;18.860;2023-02-18T02:08:15;97924.17;;;7.26;74.64
62057;BME280;48016;50.284;18.860;2023-02-18T02:10:58;97927.40;;;7.23;74.38
62057;BME280;48016;50.284;18.860;2023-02-18T02:16:31;97927.15;;;7.15;73.86
62057;BME280;48016;50.284;18.860;2023-02-18T02:27:18;97922.37;;;6.94;73.32
62057;BME280;48016;50.284;18.860;2023-02-18T02:32:53;97925.94;;;6.85;73.86
62057;BME280;48016;50.284;18.860;2023-02-18T02:35:55;97927.36;;;6.82;74.27
62057;BME280;48016;50.284;18.860;2023-02-18T02:38:33;97932.42;;;6.80;74.60
62057;BME280;48016;50.284;18.860;2023-02-18T02:41:15;97935.35;;;6.79;74.84
62057;BME280;48016;50.284;18.860;2023-02-18T02:46:43;97937.58;;;6.71;75.31
62057;BME280;48016;50.284;18.860;2023-02-18T02:49:39;97938.92;;;6.69;75.55
62057;BME280;48016;50.284;18.860;2023-02-18T02:52:22;97941.72;;;6.64;75.71
62057;BME280;48016;50.284;18.860;2023-02-18T02:54:51;97941.17;;;6.61;75.91
62057;BME280;48016;50.284;18.860;2023-02-18T02:59:51;97947.30;;;6.53;76.06
62057;BME280;48016;50.284;18.860;2023-02-18T03:02:38;97950.02;;;6.49;75.91
62057;BME280;48016;50.284;18.860;2023-02-18T03:05:18;97955.11;;;6.46;75.56
62057;BME280;48016;50.284;18.860;2023-02-18T03:07:51;97957.10;;;6.46;75.23
62057;BME280;48016;50.284;18.860;2023-02-18T03:16:03;97978.66;;;6.48;73.02
62057;BME280;48016;50.284;18.860;2023-02-18T03:21:24;97983.95;;;6.44;72.55
62057;BME280;48016;50.284;18.860;2023-02-18T03:23:56;97991.69;;;6.41;72.87
62057;BME280;48016;50.284;18.860;2023-02-18T03:26:24;97993.50;;;6.39;72.69
62057;BME280;48016;50.284;18.860;2023-02-18T03:28:54;97998.92;;;6.36;72.99
62057;BME280;48016;50.284;18.860;2023-02-18T03:31:25;97998.45;;;6.31;72.96
62057;BME280;48016;50.284;18.860;2023-02-18T03:34:01;98000.48;;;6.26;73.43
62057;BME280;48016;50.284;18.860;2023-02-18T03:36:30;97996.09;;;6.20;73.97
62057;BME280;48016;50.284;18.860;2023-02-18T03:39:02;97996.33;;;6.13;74.70
62057;BME280;48016;50.284;18.860;2023-02-18T03:41:30;97995.34;;;6.08;75.55
62057;BME280;48016;50.284;18.860;2023-02-18T03:43:58;97998.17;;;6.04;76.12
62057;BME280;48016;50.284;18.860;2023-02-18T03:46:26;97996.14;;;6.01;76.53
62057;BME280;48016;50.284;18.860;2023-02-18T03:48:54;97998.30;;;5.99;76.98
62057;BME280;48016;50.284;18.860;2023-02-18T03:51:21;97998.00;;;5.98;77.49
62057;BME280;48016;50.284;18.860;2023-02-18T03:53:48;97995.50;;;5.96;77.73
62057;BME280;48016;50.284;18.860;2023-02-18T03:56:15;97993.20;;;5.95;77.98
62057;BME280;48016;50.284;18.860;2023-02-18T03:58:42;97999.09;;;5.94;78.05
62057;BME280;48016;50.284;18.860;2023-02-18T04:01:10;98002.83;;;5.92;77.94
62057;BME280;48016;50.284;18.860;2023-02-18T04:03:36;98003.55;;;5.89;77.53
62057;BME280;48016;50.284;18.860;2023-02-18T04:06:03;98004.91;;;5.84;75.83
62057;BME280;48016;50.284;18.860;2023-02-18T04:08:30;98007.57;;;5.83;74.58
62057;BME280;48016;50.284;18.860;2023-02-18T04:10:57;98006.31;;;5.82;72.21
62057;BME280;48016;50.284;18.860;2023-02-18T04:13:23;98008.36;;;5.83;71.13
62057;BME280;48016;50.284;18.860;2023-02-18T04:15:50;98015.99;;;5.83;70.05
62057;BME280;48016;50.284;18.860;2023-02-18T04:18:17;98021.48;;;5.83;69.16
62057;BME280;48016;50.284;18.860;2023-02-18T04:20:44;98017.64;;;5.81;68.25
62057;BME280;48016;50.284;18.860;2023-02-18T04:23:11;98022.86;;;5.79;67.21
62057;BME280;48016;50.284;18.860;2023-02-18T04:25:38;98026.88;;;5.79;64.68
62057;BME280;48016;50.284;18.860;2023-02-18T04:28:05;98027.63;;;5.79;65.19
62057;BME280;48016;50.284;18.860;2023-02-18T04:30:32;98025.94;;;5.78;64.71
62057;BME280;48016;50.284;18.860;2023-02-18T04:32:59;98037.20;;;5.78;63.30
62057;BME280;48016;50.284;18.860;2023-02-18T04:35:25;98028.46;;;5.78;63.27
62057;BME280;48016;50.284;18.860;2023-02-18T04:37:52;98031.84;;;5.76;63.21
62057;BME280;48016;50.284;18.860;2023-02-18T04:40:19;98035.89;;;5.73;62.40
62057;BME280;48016;50.284;18.860;2023-02-18T04:42:45;98034.67;;;5.69;61.84
62057;BME280;48016;50.284;18.860;2023-02-18T04:45:12;98038.88;;;5.66;62.33
62057;BME280;48016;50.284;18.860;2023-02-18T04:47:38;98043.59;;;5.63;62.35
62057;BME280;48016;50.284;18.860;2023-02-18T04:50:05;98044.02;;;5.59;62.09
62057;BME280;48016;50.284;18.860;2023-02-18T04:52:32;98050.23;;;5.54;61.80
62057;BME280;48016;50.284;18.860;2023-02-18T04:54:59;98054.67;;;5.50;61.74
62057;BME280;48016;50.284;18.860;2023-02-18T04:57:25;98054.58;;;5.44;61.69
62057;BME280;48016;50.284;18.860;2023-02-18T04:59:52;98047.02;;;5.38;62.62
62057;BME280;48016;50.284;18.860;2023-02-18T05:02:19;98046.83;;;5.35;61.84
62057;BME280;48016;50.284;18.860;2023-02-18T05:04:46;98041.42;;;5.33;61.99
62057;BME280;48016;50.284;18.860;2023-02-18T05:07:12;98045.05;;;5.31;61.03
62057;BME280;48016;50.284;18.860;2023-02-18T05:09:39;98050.63;;;5.31;61.25
62057;BME280;48016;50.284;18.860;2023-02-18T05:12:06;98051.59;;;5.31;61.48
62057;BME280;48016;50.284;18.860;2023-02-18T05:14:33;98050.48;;;5.30;60.94
62057;BME280;48016;50.284;18.860;2023-02-18T05:16:59;98049.96;;;5.28;60.64
62057;BME280;48016;50.284;18.860;2023-02-18T05:19:26;98051.71;;;5.27;60.50
62057;BME280;48016;50.284;18.860;2023-02-18T05:21:53;98051.70;;;5.26;60.71
62057;BME280;48016;50.284;18.860;2023-02-18T05:24:19;98050.03;;;5.24;60.31
62057;BME280;48016;50.284;18.860;2023-02-18T05:26:46;98045.56;;;5.22;59.82
62057;BME280;48016;50.284;18.860;2023-02-18T05:29:12;98050.27;;;5.22;60.09
62057;BME280;48016;50.284;18.860;2023-02-18T05:31:39;98056.30;;;5.21;60.04
62057;BME280;48016;50.284;18.860;2023-02-18T05:34:06;98052.75;;;5.18;59.65
62057;BME280;48016;50.284;18.860;2023-02-18T05:36:32;98053.44;;;5.16;60.28
62057;BME280;48016;50.284;18.860;2023-02-18T05:38:59;98052.00;;;5.12;60.48
62057;BME280;48016;50.284;18.860;2023-02-18T05:41:26;98053.54;;;5.08;60.35
62057;BME280;48016;50.284;18.860;2023-02-18T05:43:52;98047.64;;;5.04;60.28
62057;BME280;48016;50.284;18.860;2023-02-18T05:46:38;98052.92;;;5.01;60.39
62057;BME280;48016;50.284;18.860;2023-02-18T05:49:04;98059.45;;;5.01;60.33
62057;BME280;48016;50.284;18.860;2023-02-18T05:51:31;98065.20;;;5.02;59.53
62057;BME280;48016;50.284;18.860;2023-02-18T05:53:58;98060.77;;;5.02;59.25
62057;BME280;48016;50.284;18.860;2023-02-18T05:56:24;98062.86;;;5.04;59.59
62057;BME280;48016;50.284;18.860;2023-02-18T05:58:51;98064.52;;;5.06;59.67
62057;BME280;48016;50.284;18.860;2023-02-18T06:01:17;98060.31;;;5.07;59.83
62057;BME280;48016;50.284;18.860;2023-02-18T06:03:44;98057.65;;;5.09;59.67
62057;BME280;48016;50.284;18.860;2023-02-18T06:06:11;98059.27;;;5.14;59.71
62057;BME280;48016;50.284;18.860;2023-02-18T06:08:37;98062.40;;;5.18;59.38
62057;BME280;48016;50.284;18.860;2023-02-18T06:11:04;98065.90;;;5.25;59.32
62057;BME280;48016;50.284;18.860;2023-02-18T06:13:31;98065.11;;;5.31;58.52
62057;BME280;48016;50.284;18.860;2023-02-18T06:15:57;98072.25;;;5.37;58.92
62057;BME280;48016;50.284;18.860;2023-02-18T06:18:24;98072.70;;;5.42;58.41
62057;BME280;48016;50.284;18.860;2023-02-18T06:20:51;98074.95;;;5.48;58.59
62057;BME280;48016;50.284;18.860;2023-02-18T06:23:17;98075.08;;;5.53;58.68
62057;BME280;48016;50.284;18.860;2023-02-18T06:25:47;98081.48;;;5.59;58.36
62057;BME280;48016;50.284;18.860;2023-02-18T06:28:14;98083.36;;;5.66;58.09
62057;BME280;48016;50.284;18.860;2023-02-18T06:30:41;98089.95;;;5.72;57.42
62057;BME280;48016;50.284;18.860;2023-02-18T06:33:07;98087.52;;;5.78;57.14
62057;BME280;48016;50.284;18.860;2023-02-18T06:35:34;98087.74;;;5.82;57.21
62057;BME280;48016;50.284;18.860;2023-02-18T06:38:01;98081.86;;;5.87;56.80
62057;BME280;48016;50.284;18.860;2023-02-18T06:40:27;98081.58;;;5.91;56.71
62057;BME280;48016;50.284;18.860;2023-02-18T06:42:54;98080.27;;;5.96;56.45
62057;BME280;48016;50.284;18.860;2023-02-18T06:45:21;98086.67;;;6.00;56.22
62057;BME280;48016;50.284;18.860;2023-02-18T06:47:47;98089.70;;;6.07;56.35
62057;BME280;48016;50.284;18.860;2023-02-18T06:50:14;98084.02;;;6.14;56.14
62057;BME280;48016;50.284;18.860;2023-02-18T06:52:41;98083.84;;;6.20;55.95
62057;BME280;48016;50.284;18.860;2023-02-18T06:55:08;98085.38;;;6.27;56.06
62057;BME280;48016;50.284;18.860;2023-02-18T06:57:34;98090.86;;;6.34;56.00
62057;BME280;48016;50.284;18.860;2023-02-18T07:00:02;98099.65;;;6.40;55.89
62057;BME280;48016;50.284;18.860;2023-02-18T07:02:29;98105.15;;;6.45;55.80
62057;BME280;48016;50.284;18.860;2023-02-18T07:04:55;98105.15;;;6.50;55.26
62057;BME280;48016;50.284;18.860;2023-02-18T07:07:22;98096.59;;;6.52;55.00
62057;BME280;48016;50.284;18.860;2023-02-18T07:09:49;98097.53;;;6.53;54.86
62057;BME280;48016;50.284;18.860;2023-02-18T07:12:15;98095.08;;;6.53;55.28
62057;BME280;48016;50.284;18.860;2023-02-18T07:14:44;98097.14;;;6.54;55.10
62057;BME280;48016;50.284;18.860;2023-02-18T07:17:11;98101.34;;;6.57;54.98
62057;BME280;48016;50.284;18.860;2023-02-18T07:19:38;98097.88;;;6.59;53.87
62057;BME280;48016;50.284;18.860;2023-02-18T07:22:04;98095.71;;;6.60;53.80
62057;BME280;48016;50.284;18.860;2023-02-18T07:24:31;98095.67;;;6.60;54.14
62057;BME280;48016;50.284;18.860;2023-02-18T07:26:58;98098.20;;;6.60;53.13
62057;BME280;48016;50.284;18.860;2023-02-18T07:29:24;98096.86;;;6.61;53.41
62057;BME280;48016;50.284;18.860;2023-02-18T07:31:51;98094.77;;;6.61;53.81
62057;BME280;48016;50.284;18.860;2023-02-18T07:34:19;98098.91;;;6.61;54.00
62057;BME280;48016;50.284;18.860;2023-02-18T07:36:46;98098.05;;;6.61;54.05
62057;BME280;48016;50.284;18.860;2023-02-18T07:39:12;98099.73;;;6.62;53.95
62057;BME280;48016;50.284;18.860;2023-02-18T07:41:39;98100.17;;;6.63;53.37
62057;BME280;48016;50.284;18.860;2023-02-18T07:44:06;98102.11;;;6.63;53.36
62057;BME280;48016;50.284;18.860;2023-02-18T07:46:32;98103.44;;;6.64;53.92
62057;BME280;48016;50.284;18.860;2023-02-18T07:48:59;98102.19;;;6.68;53.63
62057;BME280;48016;50.284;18.860;2023-02-18T07:51:25;98107.25;;;6.71;53.45
62057;BME280;48016;50.284;18.860;2023-02-18T07:53:52;98111.20;;;6.74;53.44
62057;BME280;48016;50.284;18.860;2023-02-18T07:56:19;98110.68;;;6.78;53.32
62057;BME280;48016;50.284;18.860;2023-02-18T07:58:46;98112.34;;;6.80;53.30
62057;BME280;48016;50.284;18.860;2023-02-18T08:01:14;98114.30;;;6.81;53.21
62057;BME280;48016;50.284;18.860;2023-02-18T08:03:41;98108.27;;;6.84;53.45
62057;BME280;48016;50.284;18.860;2023-02-18T08:06:08;98110.23;;;6.87;52.74
62057;BME280;48016;50.284;18.860;2023-02-18T08:08:40;98111.84;;;6.89;52.19
62057;BME280;48016;50.284;18.860;2023-02-18T08:11:06;98110.92;;;6.92;52.09
62057;BME280;48016;50.284;18.860;2023-02-18T08:13:33;98111.30;;;6.94;52.87
62057;BME280;48016;50.284;18.860;2023-02-18T08:16:00;98111.11;;;6.96;52.66
62057;BME280;48016;50.284;18.860;2023-02-18T08:18:26;98104.88;;;6.98;53.04
62057;BME280;48016;50.284;18.860;2023-02-18T08:20:53;98116.18;;;6.99;52.99
62057;BME280;48016;50.284;18.860;2023-02-18T08:23:20;98112.13;;;7.00;53.11
62057;BME280;48016;50.284;18.860;2023-02-18T08:25:49;98107.87;;;7.02;53.32
62057;BME280;48016;50.284;18.860;2023-02-18T08:28:17;98110.30;;;7.03;52.73
62057;BME280;48016;50.284;18.860;2023-02-18T08:30:47;98111.29;;;7.03;53.07
62057;BME280;48016;50.284;18.860;2023-02-18T08:33:15;98113.48;;;7.03;53.06
62057;BME280;48016;50.284;18.860;2023-02-18T08:35:43;98103.50;;;7.06;53.26
62057;BME280;48016;50.284;18.860;2023-02-18T08:38:10;98100.73;;;7.08;52.79
62057;BME280;48016;50.284;18.860;2023-02-18T08:40:37;98116.31;;;7.10;52.60
62057;BME280;48016;50.284;18.860;2023-02-18T08:43:03;98109.75;;;7.13;53.17
62057;BME280;48016;50.284;18.860;2023-02-18T08:45:30;98113.14;;;7.15;52.76
62057;BME280;48016;50.284;18.860;2023-02-18T08:47:57;98110.88;;;7.20;52.72
62057;BME280;48016;50.284;18.860;2023-02-18T08:50:24;98108.83;;;7.22;52.47
62057;BME280;48016;50.284;18.860;2023-02-18T08:52:52;98101.05;;;7.27;53.14
62057;BME280;48016;50.284;18.860;2023-02-18T08:55:18;98114.91;;;7.31;53.13
62057;BME280;48016;50.284;18.860;2023-02-18T08:57:49;98114.23;;;7.34;53.27
62057;BME280;48016;50.284;18.860;2023-02-18T09:00:16;98118.96;;;7.37;53.13
62057;BME280;48016;50.284;18.860;2023-02-18T09:02:43;98115.92;;;7.40;53.53
62057;BME280;48016;50.284;18.860;2023-02-18T09:05:11;98117.55;;;7.45;53.49
62057;BME280;48016;50.284;18.860;2023-02-18T09:07:38;98108.23;;;7.50;53.96
62057;BME280;48016;50.284;18.860;2023-02-18T09:10:05;98115.30;;;7.56;54.27
62057;BME280;48016;50.284;18.860;2023-02-18T09:12:41;98111.65;;;7.60;54.43
62057;BME280;48016;50.284;18.860;2023-02-18T09:15:10;98106.59;;;7.62;54.62
62057;BME280;48016;50.284;18.860;2023-02-18T09:17:46;98105.02;;;7.64;54.91
62057;BME280;48016;50.284;18.860;2023-02-18T09:20:12;98106.56;;;7.63;54.86
62057;BME280;48016;50.284;18.860;2023-02-18T09:22:39;98113.21;;;7.63;54.80
62057;BME280;48016;50.284;18.860;2023-02-18T09:25:06;98111.08;;;7.63;55.27
62057;BME280;48016;50.284;18.860;2023-02-18T09:27:33;98111.70;;;7.64;55.64
62057;BME280;48016;50.284;18.860;2023-02-18T09:29:59;98113.45;;;7.66;55.86
62057;BME280;48016;50.284;18.860;2023-02-18T09:32:26;98109.67;;;7.69;56.26
62057;BME280;48016;50.284;18.860;2023-02-18T09:34:53;98107.54;;;7.73;56.55
62057;BME280;48016;50.284;18.860;2023-02-18T09:37:19;98101.73;;;7.76;56.59
62057;BME280;48016;50.284;18.860;2023-02-18T09:39:46;98086.95;;;7.83;56.81
62057;BME280;48016;50.284;18.860;2023-02-18T09:42:17;98080.11;;;7.92;56.60
62057;BME280;48016;50.284;18.860;2023-02-18T09:44:51;98083.02;;;7.95;55.96
62057;BME280;48016;50.284;18.860;2023-02-18T09:47:36;98086.30;;;7.95;55.99
62057;BME280;48016;50.284;18.860;2023-02-18T09:50:05;98089.02;;;7.94;55.75
62057;BME280;48016;50.284;18.860;2023-02-18T09:52:36;98084.89;;;7.88;54.98
62057;BME280;48016;50.284;18.860;2023-02-18T09:57:56;98086.45;;;7.83;54.99
62057;BME280;48016;50.284;18.860;2023-02-18T10:00:29;98090.51;;;7.80;55.10
62057;BME280;48016;50.284;18.860;2023-02-18T10:05:28;98098.95;;;7.71;55.72
62057;BME280;48016;50.284;18.860;2023-02-18T10:08:01;98092.25;;;7.67;55.81
62057;BME280;48016;50.284;18.860;2023-02-18T10:10:31;98093.85;;;7.66;56.20
62057;BME280;48016;50.284;18.860;2023-02-18T10:13:00;98094.79;;;7.64;56.38
62057;BME280;48016;50.284;18.860;2023-02-18T10:15:29;98088.39;;;7.61;56.70
62057;BME280;48016;50.284;18.860;2023-02-18T10:17:57;98097.50;;;7.60;57.05
62057;BME280;48016;50.284;18.860;2023-02-18T10:20:28;98091.81;;;7.55;57.41
62057;BME280;48016;50.284;18.860;2023-02-18T10:22:58;98100.70;;;7.47;57.74
62057;BME280;48016;50.284;18.860;2023-02-18T10:25:26;98090.66;;;7.37;58.40
62057;BME280;48016;50.284;18.860;2023-02-18T10:27:53;98087.69;;;7.27;59.29
62057;BME280;48016;50.284;18.860;2023-02-18T10:30:30;98089.19;;;7.22;59.61
62057;BME280;48016;50.284;18.860;2023-02-18T10:33:16;98087.85;;;7.19;59.72
62057;BME280;48016;50.284;18.860;2023-02-18T10:36:40;98088.68;;;7.13;60.02
62057;BME280;48016;50.284;18.860;2023-02-18T10:39:04;98080.21;;;7.09;60.43
62057;BME280;48016;50.284;18.860;2023-02-18T10:52:18;98069.85;;;6.96;61.83
62057;BME280;48016;50.284;18.860;2023-02-18T10:54:52;98070.94;;;6.94;62.08
62057;BME280;48016;50.284;18.860;2023-02-18T10:57:23;98065.02;;;6.92;62.74
62057;BME280;48016;50.284;18.860;2023-02-18T11:00:03;98068.08;;;6.94;63.61
62057;BME280;48016;50.284;18.860;2023-02-18T11:02:37;98075.27;;;6.96;63.87
62057;BME280;48016;50.284;18.860;2023-02-18T11:05:17;98068.35;;;6.92;64.46
62057;BME280;48016;50.284;18.860;2023-02-18T11:07:47;98064.05;;;6.91;65.07
62057;BME280;48016;50.284;18.860;2023-02-18T11:10:17;98060.80;;;6.93;65.80
62057;BME280;48016;50.284;18.860;2023-02-18T11:12:48;98054.87;;;6.95;66.34
62057;BME280;48016;50.284;18.860;2023-02-18T11:15:20;98049.09;;;6.99;66.56
62057;BME280;48016;50.284;18.860;2023-02-18T11:17:51;98040.27;;;7.00;66.57
62057;BME280;48016;50.284;18.860;2023-02-18T11:20:32;98035.61;;;6.97;67.23
62057;BME280;48016;50.284;18.860;2023-02-18T11:25:37;98022.04;;;6.98;67.17
62057;BME280;48016;50.284;18.860;2023-02-18T11:30:45;98017.20;;;6.90;67.97
62057;BME280;48016;50.284;18.860;2023-02-18T11:33:17;98011.55;;;6.89;68.18
62057;BME280;48016;50.284;18.860;2023-02-18T11:35:49;98008.42;;;6.92;68.44
62057;BME280;48016;50.284;18.860;2023-02-18T11:38:23;98003.05;;;6.94;68.66
62057;BME280;48016;50.284;18.860;2023-02-18T11:41:09;97993.70;;;6.92;69.01
62057;BME280;48016;50.284;18.860;2023-02-18T11:43:41;97987.27;;;6.90;69.36
62057;BME280;48016;50.284;18.860;2023-02-18T11:46:09;97988.92;;;6.89;69.41
62057;BME280;48016;50.284;18.860;2023-02-18T11:48:36;97987.50;;;6.88;69.61
62057;BME280;48016;50.284;18.860;2023-02-18T11:51:03;97985.22;;;6.90;69.95
62057;BME280;48016;50.284;18.860;2023-02-18T11:53:33;97980.45;;;6.93;70.00
62057;BME280;48016;50.284;18.860;2023-02-18T11:56:03;97976.74;;;6.91;69.94
62057;BME280;48016;50.284;18.860;2023-02-18T11:58:38;97971.05;;;6.88;70.32
62057;BME280;48016;50.284;18.860;2023-02-18T12:01:14;97962.49;;;6.85;70.37
62057;BME280;48016;50.284;18.860;2023-02-18T12:03:51;97951.96;;;6.79;70.77
62057;BME280;48016;50.284;18.860;2023-02-18T12:06:24;97947.42;;;6.75;71.25
62057;BME280;48016;50.284;18.860;2023-02-18T12:08:57;97945.38;;;6.72;71.36
62057;BME280;48016;50.284;18.860;2023-02-18T12:11:30;97939.63;;;6.69;71.75
62057;BME280;48016;50.284;18.860;2023-02-18T12:13:58;97935.96;;;6.68;72.35
62057;BME280;48016;50.284;18.860;2023-02-18T12:33:38;97904.67;;;6.68;73.86
62057;BME280;48016;50.284;18.860;2023-02-18T12:36:32;97890.33;;;6.73;73.98
62057;BME280;48016;50.284;18.860;2023-02-18T13:06:52;97808.25;;;6.88;75.98
62057;BME280;48016;50.284;18.860;2023-02-18T13:12:45;97786.16;;;6.78;76.61
62057;BME280;48016;50.284;18.860;2023-02-18T13:15:21;97780.56;;;6.71;76.60
62057;BME280;48016;50.284;18.860;2023-02-18T13:17:54;97777.96;;;6.69;76.48
62057;BME280;48016;50.284;18.860;2023-02-18T13:20:28;97779.69;;;6.69;76.35
62057;BME280;48016;50.284;18.860;2023-02-18T13:23:01;97776.13;;;6.69;76.70
62057;BME280;48016;50.284;18.860;2023-02-18T13:25:31;97765.14;;;6.67;76.66
62057;BME280;48016;50.284;18.860;2023-02-18T13:31:00;97741.05;;;6.63;76.91
62057;BME280;48016;50.284;18.860;2023-02-18T13:36:39;97733.11;;;6.67;77.34
62057;BME280;48016;50.284;18.860;2023-02-18T13:39:13;97726.73;;;6.65;77.36
62057;BME280;48016;50.284;18.860;2023-02-18T13:41:48;97719.75;;;6.62;77.50
62057;BME280;48016;50.284;18.860;2023-02-18T13:46:50;97701.52;;;6.60;77.25
62057;BME280;48016;50.284;18.860;2023-02-18T13:49:20;97705.59;;;6.56;77.41
62057;BME280;48016;50.284;18.860;2023-02-18T13:51:50;97704.41;;;6.53;77.71
62057;BME280;48016;50.284;18.860;2023-02-18T13:54:27;97696.05;;;6.51;77.82
62057;BME280;48016;50.284;18.860;2023-02-18T13:57:01;97685.46;;;6.50;77.90
62057;BME280;48016;50.284;18.860;2023-02-18T13:59:39;97675.68;;;6.47;78.16
62057;BME280;48016;50.284;18.860;2023-02-18T14:02:32;97667.80;;;6.37;77.99
62057;BME280;48016;50.284;18.860;2023-02-18T14:28:47;97613.88;;;6.01;79.53
62057;BME280;48016;50.284;18.860;2023-02-18T14:36:38;97574.92;;;5.96;79.92
62057;BME280;48016;50.284;18.860;2023-02-18T14:39:33;97563.54;;;5.95;80.24
62057;BME280;48016;50.284;18.860;2023-02-18T14:42:13;97550.84;;;5.98;80.45
62057;BME280;48016;50.284;18.860;2023-02-18T14:50:04;97536.96;;;5.97;80.51
62057;BME280;48016;50.284;18.860;2023-02-18T14:52:44;97540.38;;;5.96;80.49
62057;BME280;48016;50.284;18.860;2023-02-18T14:55:24;97524.00;;;5.95;80.40
62057;BME280;48016;50.284;18.860;2023-02-18T14:57:56;97514.91;;;5.97;80.69
62057;BME280;48016;50.284;18.860;2023-02-18T15:00:27;97506.45;;;5.99;80.64
62057;BME280;48016;50.284;18.860;2023-02-18T15:02:59;97499.98;;;5.98;80.94
62057;BME280;48016;50.284;18.860;2023-02-18T15:05:30;97500.43;;;5.98;81.14
62057;BME280;48016;50.284;18.860;2023-02-18T15:08:02;97495.64;;;6.00;81.22
62057;BME280;48016;50.284;18.860;2023-02-18T15:10:38;97491.45;;;6.00;81.48
62057;BME280;48016;50.284;18.860;2023-02-18T15:13:12;97484.48;;;5.99;81.68
62057;BME280;48016;50.284;18.860;2023-02-18T15:15:42;97479.94;;;5.98;81.76
62057;BME280;48016;50.284;18.860;2023-02-18T15:20:48;97463.05;;;5.96;82.05
62057;BME280;48016;50.284;18.860;2023-02-18T15:23:15;97461.08;;;5.96;82.25
62057;BME280;48016;50.284;18.860;2023-02-18T15:25:48;97462.22;;;5.97;82.53
62057;BME280;48016;50.284;18.860;2023-02-18T15:28:25;97450.16;;;5.98;82.69
62057;BME280;48016;50.284;18.860;2023-02-18T15:30:55;97443.71;;;6.02;83.08
62057;BME280;48016;50.284;18.860;2023-02-18T15:33:22;97437.48;;;6.05;83.33
62057;BME280;48016;50.284;18.860;2023-02-18T15:35:48;97426.66;;;6.10;83.71
62057;BME280;48016;50.284;18.860;2023-02-18T15:38:19;97424.90;;;6.15;83.93
62057;BME280;48016;50.284;18.860;2023-02-18T15:40:49;97423.42;;;6.21;84.16